Time;durP1;ratioP1;P1;durP2;ratioP2;P2;SDS_P1;SDS_P2;PMS_P1;PMS_P2;Temp;Humidity;BMP_temperature;BMP_pressure;BME280_temperature;BME280_humidity;BME280_pressure;Samples;Min_cycle;Max_cycle;Signal;HPM_P1;HPM_P2
2022/04/19 00:02:10;;;;;;;3.95;1.42;;;9.30;58.60;;;;;;5066431;28;20049;-67
2022/04/19 00:04:37;;;;;;;2.63;1.38;;;9.20;58.60;;;;;;5069334;28;20097;-67
2022/04/19 00:07:06;;;;;;;3.20;0.80;;;9.20;58.80;;;;;;5065521;28;20591;-65
2022/04/19 00:09:33;;;;;;;3.25;1.20;;;9.20;58.70;;;;;;5069820;28;20095;-64
2022/04/19 00:11:59;;;;;;;3.40;0.98;;;9.20;58.80;;;;;;5067769;28;20152;-66
2022/04/19 00:14:27;;;;;;;3.78;1.08;;;9.10;58.70;;;;;;5068452;28;20106;-66
2022/04/19 00:16:55;;;;;;;2.63;1.10;;;9.20;58.80;;;;;;5068240;28;20494;-66
2022/04/19 00:19:25;;;;;;;3.75;1.00;;;9.10;58.90;;;;;;5069258;28;20049;-64
2022/04/19 00:21:52;;;;;;;2.63;1.20;;;9.10;59.10;;;;;;5068369;28;20517;-65
2022/04/19 00:24:19;;;;;;;2.90;1.00;;;9.10;59.00;;;;;;5067742;28;20045;-66
2022/04/19 00:26:46;;;;;;;2.47;0.98;;;9.10;59.00;;;;;;5070557;28;20044;-66
2022/04/19 00:29:13;;;;;;;3.05;1.20;;;9.00;59.20;;;;;;5068812;28;20040;-65
2022/04/19 00:31:40;;;;;;;2.92;0.82;;;9.00;59.20;;;;;;5052527;28;20151;-65
2022/04/19 00:34:08;;;;;;;2.67;1.33;;;8.90;59.30;;;;;;5052268;28;20075;-65
2022/04/19 00:36:37;;;;;;;1.92;1.15;;;8.90;59.30;;;;;;5070267;28;20044;-65
2022/04/19 00:39:03;;;;;;;1.88;0.90;;;8.80;59.50;;;;;;5069391;28;20114;-65
2022/04/19 00:41:31;;;;;;;6.97;1.40;;;8.80;59.60;;;;;;5069250;28;20102;-65
2022/04/19 00:43:57;;;;;;;1.85;0.82;;;8.80;59.60;;;;;;5057869;28;20125;-67
2022/04/19 00:46:25;;;;;;;2.45;0.80;;;8.70;59.60;;;;;;5061670;28;20127;-65
2022/04/19 00:48:53;;;;;;;2.38;1.00;;;8.70;59.70;;;;;;5061882;28;20083;-66
2022/04/19 00:51:22;;;;;;;2.35;0.95;;;8.70;59.80;;;;;;5059851;28;20072;-65
2022/04/19 00:53:50;;;;;;;3.08;0.90;;;8.60;59.90;;;;;;5056146;28;20037;-65
2022/04/19 00:56:17;;;;;;;2.90;1.00;;;8.60;59.90;;;;;;5066880;28;20135;-66
2022/04/19 00:58:44;;;;;;;1.70;0.90;;;8.60;60.00;;;;;;5052034;28;20056;-66
2022/04/19 01:01:11;;;;;;;2.40;1.05;;;8.60;59.90;;;;;;5055587;28;20850;-65
2022/04/19 01:03:38;;;;;;;1.42;0.65;;;8.60;60.00;;;;;;5045718;28;20132;-64
2022/04/19 01:06:12;;;;;;;2.65;1.00;;;8.60;60.10;;;;;;5070361;28;20407;-65
2022/04/19 01:08:42;;;;;;;1.83;0.85;;;8.50;60.30;;;;;;5050278;28;20459;-66
2022/04/19 01:14:02;;;;;;;1.60;0.70;;;8.40;60.50;;;;;;5067643;28;20040;-65
2022/04/19 01:16:29;;;;;;;3.28;1.10;;;8.40;60.80;;;;;;5051680;28;20486;-64
2022/04/19 01:18:57;;;;;;;2.05;0.70;;;8.40;61.00;;;;;;5051308;28;20048;-65
2022/04/19 01:21:27;;;;;;;1.98;0.90;;;8.40;61.10;;;;;;5067678;28;20136;-67
2022/04/19 01:23:55;;;;;;;4.05;1.10;;;8.40;61.20;;;;;;5050480;28;20098;-65
2022/04/19 01:26:22;;;;;;;1.65;0.98;;;8.40;61.20;;;;;;5067099;28;20041;-65
2022/04/19 01:28:49;;;;;;;2.47;1.17;;;8.30;61.30;;;;;;5068413;28;20109;-67
2022/04/19 01:31:16;;;;;;;1.67;0.85;;;8.30;61.40;;;;;;5048761;28;20131;-66
2022/04/19 01:33:48;;;;;;;2.28;0.80;;;8.30;61.50;;;;;;5066608;28;20056;-66
2022/04/19 01:36:15;;;;;;;2.25;0.93;;;8.20;61.50;;;;;;5066596;28;20052;-67
2022/04/19 01:38:45;;;;;;;3.08;0.77;;;8.20;61.60;;;;;;5066285;28;20056;-68
2022/04/19 01:41:17;;;;;;;4.88;0.80;;;8.20;61.70;;;;;;5039565;28;20085;-66
2022/04/19 01:43:50;;;;;;;1.80;0.80;;;8.20;61.90;;;;;;5042991;28;20052;-65
2022/04/19 01:46:17;;;;;;;2.10;1.08;;;8.10;62.00;;;;;;5020383;28;20045;-66
2022/04/19 01:48:44;;;;;;;1.88;0.90;;;8.10;62.00;;;;;;5026675;28;20052;-67
2022/04/19 01:51:14;;;;;;;2.58;0.80;;;8.10;62.10;;;;;;5039844;28;20103;-68
2022/04/19 01:53:41;;;;;;;3.07;1.23;;;8.00;62.20;;;;;;5028721;28;20040;-66
2022/04/19 01:56:09;;;;;;;2.13;0.90;;;8.00;62.10;;;;;;5040636;28;20178;-66
2022/04/19 01:58:55;;;;;;;1.77;0.68;;;7.90;62.20;;;;;;5048558;28;20098;-66
2022/04/19 02:01:51;;;;;;;3.97;0.73;;;7.90;62.10;;;;;;5028739;28;20406;-65
2022/04/19 02:04:19;;;;;;;1.33;0.82;;;8.00;61.90;;;;;;5049796;28;20111;-66
2022/04/19 02:06:47;;;;;;;3.00;0.95;;;8.00;61.90;;;;;;5031433;28;20049;-66
2022/04/19 02:09:14;;;;;;;1.20;0.90;;;7.90;62.20;;;;;;5029141;28;20094;-65
2022/04/19 02:11:42;;;;;;;2.38;0.80;;;7.90;62.30;;;;;;5041342;28;20950;-67
2022/04/19 02:14:31;;;;;;;2.63;0.82;;;7.80;62.60;;;;;;5052709;28;20057;-66
2022/04/19 02:16:58;;;;;;;1.60;0.80;;;7.90;62.50;;;;;;5052382;28;20048;-66
2022/04/19 02:19:25;;;;;;;3.35;1.23;;;7.80;62.50;;;;;;5052528;28;20064;-65
2022/04/19 02:21:52;;;;;;;2.38;0.85;;;7.80;62.40;;;;;;5034592;28;20052;-65
2022/04/19 02:24:19;;;;;;;1.30;0.52;;;7.80;62.60;;;;;;5051523;28;20116;-65
2022/04/19 02:26:47;;;;;;;2.08;0.80;;;7.80;62.50;;;;;;5053748;28;20499;-66
2022/04/19 02:29:15;;;;;;;2.22;1.00;;;7.80;62.70;;;;;;5035068;28;20055;-67
2022/04/19 02:31:48;;;;;;;2.63;1.00;;;7.70;62.70;;;;;;5035327;28;20053;-67
2022/04/19 02:34:18;;;;;;;2.05;0.90;;;7.80;62.80;;;;;;5051687;28;20076;-67
2022/04/19 02:36:46;;;;;;;2.88;1.20;;;7.80;62.70;;;;;;5035112;28;20478;-67
2022/04/19 02:39:13;;;;;;;2.20;0.73;;;7.70;62.70;;;;;;5034357;28;20086;-66
2022/04/19 02:41:40;;;;;;;3.53;0.80;;;7.80;62.80;;;;;;5042234;28;20445;-67
2022/04/19 02:44:08;;;;;;;2.40;1.00;;;7.70;63.00;;;;;;5061692;28;20049;-66
2022/04/19 02:46:37;;;;;;;1.80;0.95;;;7.70;63.20;;;;;;5051223;28;20056;-67
2022/04/19 02:49:06;;;;;;;2.22;1.00;;;7.60;63.30;;;;;;5052385;28;20063;-67
2022/04/19 02:51:35;;;;;;;2.17;1.03;;;7.60;63.40;;;;;;5051785;28;20131;-67
2022/04/19 02:54:02;;;;;;;1.63;0.85;;;7.60;63.30;;;;;;5070841;28;20486;-66
2022/04/19 02:56:30;;;;;;;2.03;0.70;;;7.70;63.10;;;;;;5069688;28;20145;-66
2022/04/19 02:58:59;;;;;;;1.48;0.80;;;7.70;62.90;;;;;;5052078;28;20093;-67
2022/04/19 03:01:27;;;;;;;5.00;1.63;;;7.70;62.80;;;;;;5057314;28;20044;-66
2022/04/19 03:03:54;;;;;;;3.35;1.35;;;7.70;62.80;;;;;;5031810;28;20036;-67
2022/04/19 03:06:24;;;;;;;2.92;1.13;;;7.70;62.90;;;;;;5045034;28;20052;-69
2022/04/19 03:08:51;;;;;;;1.65;0.80;;;7.60;63.00;;;;;;5067715;28;20526;-66
2022/04/19 03:11:18;;;;;;;4.00;1.00;;;7.60;63.10;;;;;;5048263;28;20068;-66
2022/04/19 03:13:45;;;;;;;2.95;1.00;;;7.60;63.10;;;;;;5066335;28;20160;-67
2022/04/19 03:16:15;;;;;;;1.60;0.77;;;7.50;63.40;;;;;;5050075;28;20045;-66
2022/04/19 03:18:43;;;;;;;2.85;1.08;;;7.40;63.50;;;;;;5052397;28;20583;-67
2022/04/19 03:21:12;;;;;;;4.50;1.10;;;7.40;63.70;;;;;;5066713;28;20529;-66
2022/04/19 03:29:13;;;;;;;3.65;1.00;;;7.20;63.70;;;;;;5044450;28;20068;-67
2022/04/19 03:31:40;;;;;;;3.35;1.20;;;7.30;63.70;;;;;;5048908;28;20067;-66
2022/04/19 03:34:07;;;;;;;1.77;1.00;;;7.30;63.70;;;;;;5045904;28;20059;-66
2022/04/19 03:36:36;;;;;;;2.50;1.00;;;7.30;63.70;;;;;;5064800;28;20056;-67
2022/04/19 03:39:05;;;;;;;2.28;0.95;;;7.30;63.70;;;;;;5048786;28;20052;-67
2022/04/19 03:41:32;;;;;;;2.72;1.17;;;7.20;63.70;;;;;;5063876;28;20057;-65
2022/04/19 03:44:18;;;;;;;1.95;1.10;;;7.20;63.80;;;;;;5065593;28;20115;-65
2022/04/19 03:49:32;;;;;;;2.88;1.30;;;7.20;63.50;;;;;;5047526;28;20461;-65
2022/04/19 03:51:59;;;;;;;3.05;1.50;;;7.20;63.50;;;;;;5067420;28;20044;-66
2022/04/19 03:54:27;;;;;;;3.00;0.88;;;7.20;63.40;;;;;;5063101;28;20128;-67
2022/04/19 03:56:55;;;;;;;2.53;0.90;;;7.20;63.50;;;;;;5045215;28;20045;-66
2022/04/19 03:59:22;;;;;;;2.40;1.13;;;7.10;63.70;;;;;;5044655;28;20061;-67
2022/04/19 04:01:51;;;;;;;3.10;1.00;;;7.10;63.90;;;;;;5042170;28;20127;-66
2022/04/19 04:04:18;;;;;;;1.52;0.75;;;7.00;64.00;;;;;;5066761;28;20045;-66
2022/04/19 04:06:46;;;;;;;2.22;1.00;;;6.90;64.30;;;;;;5064789;28;20055;-65
2022/04/19 04:09:13;;;;;;;1.35;0.60;;;7.00;64.20;;;;;;5050136;28;20592;-66
2022/04/19 04:11:44;;;;;;;3.30;1.20;;;6.90;64.10;;;;;;5052461;28;20490;-66
2022/04/19 04:14:16;;;;;;;2.30;1.15;;;6.90;64.10;;;;;;5051849;28;20705;-66
2022/04/19 04:16:47;;;;;;;2.67;1.40;;;6.90;64.00;;;;;;5052772;28;20134;-66
2022/04/19 04:19:14;;;;;;;1.75;1.08;;;6.90;63.80;;;;;;5052082;28;20044;-66
2022/04/19 04:21:41;;;;;;;3.15;1.08;;;6.90;63.90;;;;;;5050188;28;20045;-64
2022/04/19 04:24:08;;;;;;;2.90;1.27;;;7.00;63.90;;;;;;5052360;28;20044;-66
2022/04/19 04:26:43;;;;;;;2.50;1.05;;;7.00;63.80;;;;;;5061730;28;20056;-66
2022/04/19 04:29:12;;;;;;;4.80;1.20;;;6.90;64.00;;;;;;5063051;28;20055;-66
2022/04/19 04:31:40;;;;;;;3.72;1.48;;;6.90;64.00;;;;;;5068173;28;20048;-65
2022/04/19 04:34:13;;;;;;;3.28;1.38;;;6.80;64.30;;;;;;5049920;28;20083;-66
2022/04/19 04:36:48;;;;;;;4.03;1.10;;;6.80;64.50;;;;;;5053148;28;20528;-66
2022/04/19 04:39:21;;;;;;;3.90;1.58;;;6.80;64.40;;;;;;5049802;28;20052;-65
2022/04/19 04:42:10;;;;;;;2.58;0.88;;;6.80;64.40;;;;;;5035138;28;20049;-66
2022/04/19 04:44:37;;;;;;;2.85;1.25;;;6.80;64.40;;;;;;5043617;28;20044;-66
2022/04/19 04:49:50;;;;;;;3.22;1.08;;;6.90;64.20;;;;;;5065647;28;20048;-66
2022/04/19 04:52:20;;;;;;;4.82;1.10;;;6.90;64.30;;;;;;5049821;28;20048;-66
2022/04/19 04:54:49;;;;;;;3.58;1.30;;;6.80;64.40;;;;;;5067548;28;20048;-66
2022/04/19 04:57:24;;;;;;;3.10;1.52;;;6.80;64.60;;;;;;5052000;28;20053;-65
2022/04/19 04:59:51;;;;;;;4.22;2.00;;;6.80;64.50;;;;;;5060469;28;20494;-67
2022/04/19 05:02:23;;;;;;;2.97;1.40;;;6.70;64.70;;;;;;5053349;28;20044;-67
2022/04/19 05:04:51;;;;;;;3.33;1.58;;;6.70;64.90;;;;;;5036916;28;20059;-66
2022/04/19 05:07:19;;;;;;;3.05;1.60;;;6.70;65.00;;;;;;5064251;28;20052;-66
2022/04/19 05:09:50;;;;;;;4.07;1.65;;;6.70;64.90;;;;;;5063413;28;20049;-66
2022/04/19 05:12:18;;;;;;;6.97;1.30;;;6.70;65.10;;;;;;5050180;28;20117;-67
2022/04/19 05:14:46;;;;;;;2.92;1.60;;;6.70;65.10;;;;;;5046010;28;20165;-66
2022/04/19 05:17:13;;;;;;;3.40;1.52;;;6.70;65.10;;;;;;5052732;28;20044;-67
2022/04/19 05:19:43;;;;;;;3.17;1.35;;;6.70;65.00;;;;;;5047390;28;20049;-66
2022/04/19 05:22:11;;;;;;;3.40;1.33;;;6.70;65.00;;;;;;5043587;28;20456;-66
2022/04/19 05:24:38;;;;;;;3.53;1.48;;;6.80;64.90;;;;;;5049900;28;20051;-65
2022/04/19 05:27:05;;;;;;;3.53;1.80;;;6.70;65.10;;;;;;5049043;28;20041;-66
2022/04/19 05:29:33;;;;;;;2.67;1.00;;;6.70;65.10;;;;;;5049522;28;20459;-66
2022/04/19 05:32:01;;;;;;;3.20;1.63;;;6.80;65.10;;;;;;5049457;28;20574;-65
2022/04/19 05:34:29;;;;;;;3.35;1.50;;;6.80;65.20;;;;;;5067726;28;20090;-66
2022/04/19 05:36:56;;;;;;;2.55;1.27;;;6.80;65.10;;;;;;5049246;28;20094;-66
2022/04/19 05:39:23;;;;;;;4.82;1.75;;;6.80;65.20;;;;;;5046244;28;20482;-65
2022/04/19 05:41:50;;;;;;;5.30;1.60;;;6.80;65.40;;;;;;5049860;28;20503;-65
2022/04/19 05:44:17;;;;;;;3.05;1.27;;;6.80;65.20;;;;;;5050369;28;20047;-65
2022/04/19 05:46:45;;;;;;;2.45;1.50;;;6.90;65.10;;;;;;5051779;28;20060;-66
2022/04/19 05:49:13;;;;;;;5.07;1.55;;;6.90;65.00;;;;;;5071989;28;20049;-66
2022/04/19 05:51:45;;;;;;;5.15;1.90;;;6.90;65.00;;;;;;5073054;28;20059;-65
2022/04/19 05:54:12;;;;;;;3.60;1.42;;;7.00;64.80;;;;;;5053983;28;20048;-65
2022/04/19 05:56:42;;;;;;;3.55;1.33;;;7.10;64.60;;;;;;5055462;28;20045;-65
2022/04/19 05:59:10;;;;;;;3.22;1.45;;;7.10;64.50;;;;;;5071879;28;20059;-64
2022/04/19 06:07:08;;;;;;;2.95;1.23;;;7.20;63.90;;;;;;5066659;28;20047;-65
2022/04/19 06:09:35;;;;;;;5.10;1.50;;;7.20;63.70;;;;;;5053742;28;20145;-65
2022/04/19 06:12:03;;;;;;;2.17;1.23;;;7.30;63.60;;;;;;5052291;28;20425;-66
2022/04/19 06:14:35;;;;;;;9.38;2.05;;;7.30;63.50;;;;;;5053941;28;20044;-66
2022/04/19 06:17:02;;;;;;;2.88;1.50;;;7.40;63.40;;;;;;5053060;28;20045;-66
2022/04/19 06:19:31;;;;;;;3.35;1.65;;;7.50;63.10;;;;;;5070376;28;20036;-66
2022/04/19 06:21:59;;;;;;;8.82;2.50;;;7.60;63.20;;;;;;5069674;28;20072;-66
2022/04/19 06:24:26;;;;;;;5.88;1.85;;;7.70;62.70;;;;;;5051099;28;20048;-66
2022/04/19 06:26:55;;;;;;;4.00;1.23;;;7.70;62.60;;;;;;5050943;28;20048;-66
2022/04/19 06:29:23;;;;;;;3.00;1.52;;;7.80;62.50;;;;;;5063967;28;20063;-66
2022/04/19 06:31:54;;;;;;;4.28;1.88;;;7.90;62.30;;;;;;5052145;28;20060;-66
2022/04/19 06:34:33;;;;;;;4.38;1.60;;;8.00;62.30;;;;;;5051898;28;20134;-66
2022/04/19 06:37:05;;;;;;;4.22;1.42;;;8.10;62.30;;;;;;5049702;28;20487;-65
2022/04/19 06:39:33;;;;;;;4.50;1.70;;;8.20;62.30;;;;;;5062573;28;20037;-66
2022/04/19 06:42:00;;;;;;;3.70;1.85;;;8.20;62.40;;;;;;5050694;28;20055;-65
2022/04/19 06:44:39;;;;;;;3.38;1.55;;;8.40;62.20;;;;;;5052854;28;21263;-67
2022/04/19 06:47:13;;;;;;;4.05;1.50;;;8.50;62.00;;;;;;5051554;28;20051;-64
2022/04/19 06:49:42;;;;;;;4.95;1.75;;;8.70;61.80;;;;;;5046932;28;20184;-65
2022/04/19 06:52:10;;;;;;;4.45;1.35;;;8.80;61.50;;;;;;5061992;28;20044;-64
2022/04/19 06:54:37;;;;;;;8.35;1.73;;;9.00;61.10;;;;;;5061003;28;20037;-66
2022/04/19 06:57:05;;;;;;;4.22;1.60;;;9.10;61.00;;;;;;5060356;28;20510;-66
2022/04/19 06:59:32;;;;;;;3.03;1.63;;;9.20;60.70;;;;;;5041430;28;20055;-67
2022/04/19 07:02:00;;;;;;;3.72;1.60;;;9.40;60.40;;;;;;5043636;28;20051;-65
2022/04/19 07:04:34;;;;;;;6.28;1.90;;;9.50;60.20;;;;;;5058445;28;20403;-65
2022/04/19 07:07:07;;;;;;;3.55;1.83;;;9.70;59.60;;;;;;5067403;28;20032;-66
2022/04/19 07:09:34;;;;;;;4.93;1.60;;;9.80;59.30;;;;;;5053080;28;20278;-66
2022/04/19 07:12:02;;;;;;;4.07;1.48;;;10.00;59.20;;;;;;5049417;28;20052;-67
2022/04/19 07:14:37;;;;;;;5.28;2.17;;;10.10;58.90;;;;;;5048605;28;20125;-65
2022/04/19 07:17:09;;;;;;;4.88;2.03;;;10.40;58.80;;;;;;5064643;28;20489;-66
2022/04/19 07:28:08;;;;;;;4.03;1.63;;;10.90;56.40;;;;;;5043124;28;20447;-66
2022/04/19 07:30:44;;;;;;;4.60;1.92;;;11.10;56.40;;;;;;5042566;28;20480;-65
2022/04/19 07:33:12;;;;;;;4.30;1.90;;;11.20;56.60;;;;;;5046965;28;20048;-65
2022/04/19 07:35:41;;;;;;;5.07;2.05;;;11.30;55.50;;;;;;5053231;28;20127;-65
2022/04/19 07:38:10;;;;;;;4.10;1.73;;;11.50;55.70;;;;;;5053033;28;20052;-65
2022/04/19 07:41:06;;;;;;;8.63;1.88;;;11.60;54.80;;;;;;5070569;28;20170;-66
2022/04/19 07:43:37;;;;;;;4.18;1.85;;;11.80;54.80;;;;;;5072401;28;20395;-66
2022/04/19 07:46:04;;;;;;;5.03;2.10;;;12.00;54.20;;;;;;5052578;28;20090;-65
2022/04/19 07:48:32;;;;;;;6.15;2.13;;;12.10;53.40;;;;;;5053174;28;20118;-65
2022/04/19 07:50:59;;;;;;;4.72;2.10;;;12.20;53.50;;;;;;5052697;28;20510;-65
2022/04/19 07:53:27;;;;;;;6.32;2.53;;;12.40;52.60;;;;;;5048626;28;20520;-66
2022/04/19 07:55:57;;;;;;;5.53;2.30;;;12.50;52.10;;;;;;5070637;28;20080;-66
2022/04/19 07:58:25;;;;;;;4.80;2.05;;;12.60;52.30;;;;;;5071017;28;20041;-67
2022/04/19 08:00:52;;;;;;;5.03;1.98;;;12.70;51.50;;;;;;5046389;28;20510;-66
2022/04/19 08:03:20;;;;;;;5.63;2.33;;;12.90;51.90;;;;;;5046104;28;20040;-69
2022/04/19 08:05:47;;;;;;;5.95;2.47;;;13.10;51.30;;;;;;5052157;28;20048;-67
2022/04/19 08:08:16;;;;;;;7.13;2.28;;;13.10;50.90;;;;;;5052058;28;20147;-66
2022/04/19 08:10:45;;;;;;;6.43;2.28;;;13.30;50.00;;;;;;5063275;28;20559;-68
2022/04/19 08:13:12;;;;;;;5.32;2.35;;;13.30;50.40;;;;;;5048599;28;20040;-66
2022/04/19 08:15:39;;;;;;;4.70;2.35;;;13.40;50.20;;;;;;5058401;28;20044;-67
2022/04/19 08:18:06;;;;;;;5.95;2.05;;;13.50;50.10;;;;;;5050663;28;20702;-66
2022/04/19 08:20:34;;;;;;;4.45;1.80;;;13.70;49.80;;;;;;5066478;28;20055;-67
2022/04/19 08:23:01;;;;;;;4.60;2.17;;;13.70;50.00;;;;;;5065815;28;20509;-67
2022/04/19 08:25:28;;;;;;;4.07;1.88;;;13.90;49.40;;;;;;5062788;28;20040;-66
2022/04/19 08:27:56;;;;;;;4.63;2.13;;;14.00;48.30;;;;;;5043415;28;20054;-66
2022/04/19 08:30:24;;;;;;;6.00;2.20;;;14.10;48.60;;;;;;5042018;28;20052;-67
2022/04/19 08:32:52;;;;;;;5.50;2.40;;;14.20;48.20;;;;;;5052682;28;20040;-67
2022/04/19 08:35:19;;;;;;;6.18;2.25;;;14.30;47.50;;;;;;5062489;28;20055;-67
2022/04/19 08:37:46;;;;;;;5.30;2.05;;;14.30;47.10;;;;;;5058191;28;20040;-66
2022/04/19 08:40:16;;;;;;;3.83;1.70;;;14.40;46.60;;;;;;5055578;28;20484;-67
2022/04/19 08:42:45;;;;;;;6.32;2.45;;;14.50;47.00;;;;;;5022148;28;20053;-66
2022/04/19 08:45:15;;;;;;;3.90;1.80;;;14.60;46.60;;;;;;5041322;28;20075;-67
2022/04/19 08:47:45;;;;;;;3.90;1.83;;;14.60;46.90;;;;;;5039067;28;20055;-65
2022/04/19 08:50:15;;;;;;;3.53;1.38;;;14.70;46.70;;;;;;5040873;28;20483;-66
2022/04/19 08:52:42;;;;;;;4.75;1.70;;;14.70;46.60;;;;;;5042046;28;20052;-67
2022/04/19 08:57:56;;;;;;;4.32;1.85;;;15.00;47.30;;;;;;5042371;28;22341;-68
2022/04/19 09:00:25;;;;;;;8.88;1.83;;;15.10;46.80;;;;;;5040606;28;20451;-67
2022/04/19 09:02:54;;;;;;;5.30;2.20;;;15.10;46.20;;;;;;5024741;28;20131;-67
2022/04/19 09:05:23;;;;;;;6.13;1.98;;;15.30;45.40;;;;;;5044230;28;20098;-66
2022/04/19 09:07:52;;;;;;;6.10;2.05;;;15.30;44.90;;;;;;5043644;28;20045;-66
2022/04/19 09:10:28;;;;;;;5.70;1.90;;;15.30;45.00;;;;;;5041581;28;20048;-67
2022/04/19 09:12:59;;;;;;;4.60;1.77;;;15.40;45.50;;;;;;5042694;28;20983;-67
2022/04/19 09:15:34;;;;;;;6.22;2.10;;;15.50;46.00;;;;;;5042162;28;20122;-66
2022/04/19 09:18:01;;;;;;;6.63;1.92;;;15.60;46.30;;;;;;5042056;28;20045;-68
2022/04/19 09:20:29;;;;;;;3.58;1.65;;;15.60;46.80;;;;;;5043287;28;20064;-65
2022/04/19 09:23:07;;;;;;;3.33;1.40;;;15.70;46.10;;;;;;5043897;28;20072;-66
2022/04/19 09:25:36;;;;;;;4.32;1.63;;;15.70;46.80;;;;;;5038360;28;20041;-67
2022/04/19 09:28:14;;;;;;;6.10;2.07;;;15.80;46.20;;;;;;5039971;28;20053;-67
2022/04/19 09:30:42;;;;;;;3.53;1.60;;;15.90;45.40;;;;;;5040705;28;20053;-66
2022/04/19 09:33:10;;;;;;;4.80;1.38;;;16.00;44.30;;;;;;5040979;28;20057;-65
2022/04/19 09:35:39;;;;;;;3.63;1.48;;;16.00;44.10;;;;;;5048498;28;20045;-66
2022/04/19 09:38:08;;;;;;;3.85;1.42;;;16.10;44.20;;;;;;5046294;28;20045;-68
2022/04/19 09:40:37;;;;;;;4.70;1.23;;;16.10;44.90;;;;;;5049844;28;20072;-68
2022/04/19 09:43:12;;;;;;;3.20;1.23;;;16.20;44.30;;;;;;5066376;28;20175;-68
2022/04/19 09:45:58;;;;;;;4.25;1.48;;;16.30;44.20;;;;;;5064456;28;20033;-66
2022/04/19 09:48:27;;;;;;;4.47;1.58;;;16.40;43.60;;;;;;5065780;28;20639;-66
2022/04/19 09:51:02;;;;;;;3.25;1.23;;;16.40;43.60;;;;;;5061043;28;20147;-66
2022/04/19 09:53:30;;;;;;;3.70;1.38;;;16.50;43.40;;;;;;5055956;28;20075;-68
2022/04/19 09:56:00;;;;;;;3.45;1.25;;;16.50;43.20;;;;;;5062401;28;20076;-76
2022/04/19 09:58:29;;;;;;;4.57;1.30;;;16.60;43.10;;;;;;5058984;28;20059;-67
2022/04/19 10:00:58;;;;;;;2.20;0.93;;;16.60;43.60;;;;;;5039461;28;20112;-68
2022/04/19 10:08:54;;;;;;;2.55;1.10;;;16.80;43.50;;;;;;5061119;28;20043;-64
2022/04/19 10:11:22;;;;;;;3.00;1.27;;;16.80;43.50;;;;;;5060393;28;20041;-66
2022/04/19 10:13:51;;;;;;;3.47;1.27;;;16.90;43.40;;;;;;5064279;28;20047;-65
2022/04/19 10:16:21;;;;;;;3.38;1.23;;;17.00;43.20;;;;;;5066114;28;20482;-65
2022/04/19 10:18:48;;;;;;;3.17;1.00;;;17.10;42.90;;;;;;5065956;28;20056;-65
2022/04/19 10:21:23;;;;;;;2.72;0.93;;;17.10;43.00;;;;;;5066602;28;20029;-66
2022/04/19 10:23:51;;;;;;;2.50;1.08;;;17.10;43.40;;;;;;5063300;28;20624;-66
2022/04/19 10:26:21;;;;;;;1.63;0.80;;;17.10;43.40;;;;;;5062982;28;20074;-65
2022/04/19 10:28:50;;;;;;;4.25;1.58;;;17.20;43.30;;;;;;5063943;28;20140;-65
2022/04/19 10:31:28;;;;;;;2.85;0.93;;;17.20;43.30;;;;;;5059968;28;20130;-65
2022/04/19 10:33:55;;;;;;;12.48;5.00;;;17.20;43.50;;;;;;5059921;28;20128;-66
2022/04/19 10:36:24;;;;;;;9.93;4.07;;;17.30;43.60;;;;;;5062894;28;20071;-65
2022/04/19 10:39:32;;;;;;;7.85;3.55;;;17.30;43.00;;;;;;5063175;28;20048;-65
2022/04/19 10:42:01;;;;;;;8.57;3.28;;;17.40;43.10;;;;;;4985048;28;20089;-66
2022/04/19 10:44:30;;;;;;;6.63;2.42;;;17.40;43.20;;;;;;5052252;28;20064;-67
2022/04/19 10:47:13;;;;;;;6.53;2.08;;;17.40;43.30;;;;;;5062115;28;20556;-66
2022/04/19 10:50:02;;;;;;;3.92;1.48;;;17.40;43.10;;;;;;5070726;28;20051;-66
2022/04/19 10:52:48;;;;;;;5.10;1.52;;;17.50;43.40;;;;;;5068991;28;20044;-65
2022/04/19 10:55:23;;;;;;;5.07;1.92;;;17.60;43.30;;;;;;5072025;28;20040;-66
2022/04/19 10:58:09;;;;;;;5.13;1.63;;;17.60;42.90;;;;;;5069915;28;20049;-66
2022/04/19 11:00:57;;;;;;;3.38;1.50;;;17.60;42.60;;;;;;5061572;28;20128;-66
2022/04/19 11:03:49;;;;;;;2.65;1.13;;;17.60;42.40;;;;;;5066085;28;20068;-66
2022/04/19 11:06:32;;;;;;;4.35;1.58;;;17.60;42.30;;;;;;5064043;28;20036;-66
2022/04/19 11:09:23;;;;;;;3.95;1.52;;;17.60;42.30;;;;;;5062940;28;20128;-70
2022/04/19 11:11:52;;;;;;;3.83;1.40;;;17.70;42.30;;;;;;5066725;28;20046;-70
2022/04/19 11:14:46;;;;;;;2.63;1.10;;;17.70;42.50;;;;;;5065503;28;20051;-71
2022/04/19 11:17:22;;;;;;;3.05;1.30;;;17.70;42.30;;;;;;5063583;28;20043;-70
2022/04/19 11:19:54;;;;;;;3.30;0.90;;;17.70;42.10;;;;;;5069741;28;20045;-70
2022/04/19 11:22:42;;;;;;;2.92;1.10;;;17.70;42.40;;;;;;5070740;28;20052;-70
2022/04/19 11:25:10;;;;;;;3.13;1.17;;;17.70;42.10;;;;;;5066636;28;20072;-70
2022/04/19 11:28:13;;;;;;;2.97;1.15;;;17.80;42.30;;;;;;5067942;28;20119;-71
2022/04/19 11:30:45;;;;;;;3.75;1.40;;;17.80;42.40;;;;;;5067489;28;20482;-70
2022/04/19 11:33:20;;;;;;;2.65;1.13;;;17.80;42.40;;;;;;5063705;28;20131;-70
2022/04/19 11:35:59;;;;;;;3.03;1.30;;;17.80;42.50;;;;;;5069032;28;20044;-69
2022/04/19 11:38:26;;;;;;;3.35;1.55;;;17.80;42.20;;;;;;5064873;28;20041;-70
2022/04/19 11:49:10;;;;;;;4.75;1.92;;;18.00;41.90;;;;;;5064235;28;20082;-70
2022/04/19 11:51:38;;;;;;;3.53;1.52;;;18.00;42.20;;;;;;5058356;28;20494;-71
2022/04/19 11:54:06;;;;;;;3.67;1.35;;;18.10;42.00;;;;;;5061114;28;20205;-71
2022/04/19 11:56:33;;;;;;;2.63;1.17;;;18.10;42.10;;;;;;5063363;28;20132;-71
2022/04/19 11:59:02;;;;;;;3.83;1.08;;;18.10;41.90;;;;;;5061834;28;20052;-70
2022/04/19 12:01:30;;;;;;;2.85;0.82;;;18.10;41.60;;;;;;5060546;28;20379;-70
2022/04/19 12:03:57;;;;;;;2.92;1.00;;;18.10;41.40;;;;;;5068300;28;20056;-71
2022/04/19 12:06:24;;;;;;;3.03;0.95;;;18.10;41.30;;;;;;5068103;28;20394;-70
2022/04/19 12:08:53;;;;;;;2.88;1.13;;;18.10;41.10;;;;;;5068553;28;20114;-70
2022/04/19 12:11:25;;;;;;;1.93;0.90;;;18.10;41.50;;;;;;5069379;28;20052;-71
2022/04/19 12:13:53;;;;;;;3.00;1.08;;;18.10;41.60;;;;;;5049864;28;20411;-71
2022/04/19 12:16:30;;;;;;;3.67;1.15;;;18.10;41.40;;;;;;5065847;28;20060;-71
2022/04/19 12:19:00;;;;;;;3.83;1.00;;;18.00;41.70;;;;;;5061405;28;20107;-71
2022/04/19 12:21:36;;;;;;;3.35;1.10;;;18.00;41.80;;;;;;5056413;28;20055;-70
2022/04/19 12:24:07;;;;;;;3.22;1.33;;;17.90;42.00;;;;;;5062379;28;20049;-71
2022/04/19 12:26:34;;;;;;;3.63;1.50;;;18.00;41.60;;;;;;5064178;28;20567;-70
2022/04/19 12:29:10;;;;;;;3.95;1.33;;;17.90;41.50;;;;;;5065699;28;20498;-70
2022/04/19 12:31:39;;;;;;;2.25;0.95;;;18.00;41.50;;;;;;5058544;28;20052;-71
2022/04/19 12:34:07;;;;;;;2.85;1.17;;;17.90;41.60;;;;;;5063575;28;20040;-70
2022/04/19 12:36:45;;;;;;;2.85;1.20;;;17.90;41.60;;;;;;5062574;28;20275;-70
2022/04/19 12:39:14;;;;;;;2.97;1.00;;;18.00;41.80;;;;;;5067060;28;20044;-72
2022/04/19 12:41:43;;;;;;;2.28;0.70;;;18.00;41.60;;;;;;5060731;28;20136;-70
2022/04/19 12:44:12;;;;;;;2.40;0.80;;;18.00;41.90;;;;;;5067442;28;20090;-72
2022/04/19 12:46:43;;;;;;;2.13;0.85;;;18.00;41.70;;;;;;5067573;28;20040;-71
2022/04/19 12:49:21;;;;;;;1.35;0.70;;;18.00;41.40;;;;;;5066059;28;20121;-70
2022/04/19 12:51:59;;;;;;;5.00;0.90;;;18.00;41.60;;;;;;5061458;28;20045;-70
2022/04/19 12:54:28;;;;;;;3.28;1.42;;;18.00;41.70;;;;;;5063852;28;20120;-70
2022/04/19 12:57:01;;;;;;;4.05;0.98;;;18.00;41.70;;;;;;5062138;28;20055;-70
2022/04/19 12:59:29;;;;;;;1.73;0.80;;;17.90;41.90;;;;;;5060681;28;20044;-70
2022/04/19 13:01:56;;;;;;;1.45;0.65;;;17.90;41.90;;;;;;5056398;28;20040;-71
2022/04/19 13:04:23;;;;;;;1.67;0.70;;;18.00;41.90;;;;;;5059949;28;20055;-70
2022/04/19 13:12:22;;;;;;;2.28;0.75;;;17.90;42.00;;;;;;5060235;28;20908;-71
2022/04/19 13:14:52;;;;;;;2.78;1.00;;;17.90;41.60;;;;;;5060925;28;20073;-71
2022/04/19 13:17:20;;;;;;;3.38;0.80;;;17.90;41.60;;;;;;5061210;28;20040;-70
2022/04/19 13:19:47;;;;;;;1.48;0.73;;;17.90;41.90;;;;;;5059396;28;20143;-70
2022/04/19 13:22:15;;;;;;;1.58;0.73;;;17.90;41.90;;;;;;5061966;28;20094;-70
2022/04/19 13:24:44;;;;;;;1.58;0.80;;;18.00;41.90;;;;;;5061259;28;20558;-71
2022/04/19 13:27:12;;;;;;;1.23;0.70;;;18.00;42.10;;;;;;5059163;28;20136;-71
2022/04/19 13:29:40;;;;;;;2.15;0.68;;;18.00;41.80;;;;;;5060475;28;20140;-70
2022/04/19 13:32:09;;;;;;;1.70;0.80;;;18.10;41.70;;;;;;5060756;28;20062;-70
2022/04/19 13:34:36;;;;;;;2.58;0.60;;;18.10;42.00;;;;;;5061651;28;20135;-70
2022/04/19 13:37:05;;;;;;;1.60;0.70;;;18.10;41.90;;;;;;5060400;28;20494;-71
2022/04/19 13:39:32;;;;;;;2.42;0.60;;;18.10;41.70;;;;;;5062531;28;20151;-69
2022/04/19 13:42:01;;;;;;;5.88;0.90;;;18.00;41.60;;;;;;5058914;28;20076;-73
2022/04/19 13:44:28;;;;;;;2.78;0.77;;;18.00;41.60;;;;;;5061510;28;20040;-71
2022/04/19 13:46:57;;;;;;;1.27;0.70;;;18.00;41.50;;;;;;5060942;28;20112;-71
2022/04/19 13:49:25;;;;;;;1.58;0.45;;;18.00;41.30;;;;;;5059107;28;20051;-70
2022/04/19 13:51:52;;;;;;;1.13;0.50;;;18.00;41.40;;;;;;5059985;28;20125;-71
2022/04/19 13:54:20;;;;;;;1.02;0.45;;;17.90;41.10;;;;;;5059581;28;20053;-70
2022/04/19 13:56:48;;;;;;;0.85;0.30;;;17.90;40.60;;;;;;5064908;28;20047;-72
2022/04/19 13:59:18;;;;;;;1.20;0.50;;;17.90;40.60;;;;;;5065803;28;20076;-72